createdAt,value
2018-07-07T00:01:07.862Z,18.99
2018-07-07T00:03:37.353Z,18.80
2018-07-07T00:06:06.006Z,18.60
2018-07-07T00:08:34.738Z,18.47
2018-07-07T00:11:03.540Z,18.40
2018-07-07T00:13:32.320Z,18.39
2018-07-07T00:16:00.983Z,18.34
2018-07-07T00:18:29.580Z,18.29
2018-07-07T00:20:58.193Z,18.22
2018-07-07T00:23:26.854Z,18.16
2018-07-07T00:25:55.465Z,18.42
2018-07-07T00:28:24.165Z,18.59
2018-07-07T00:30:52.820Z,18.50
2018-07-07T00:33:21.420Z,18.44
2018-07-07T00:35:50.038Z,18.38
2018-07-07T00:38:18.864Z,18.38
2018-07-07T00:40:47.537Z,18.45
2018-07-07T00:43:16.162Z,18.38
2018-07-07T00:45:44.728Z,18.39
2018-07-07T00:48:13.363Z,18.39
2018-07-07T00:50:42.045Z,18.53
2018-07-07T00:53:10.645Z,18.49
2018-07-07T00:55:39.216Z,18.46
2018-07-07T00:58:07.816Z,18.49
2018-07-07T01:00:52.497Z,18.51
2018-07-07T01:03:22.042Z,18.48
2018-07-07T01:05:51.150Z,18.41
2018-07-07T01:08:19.734Z,18.43
2018-07-07T01:10:48.415Z,18.44
2018-07-07T01:13:16.832Z,18.46
2018-07-07T01:15:45.420Z,18.42
2018-07-07T01:18:14.107Z,18.34
2018-07-07T01:20:42.703Z,18.31
2018-07-07T01:23:11.283Z,18.20
2018-07-07T01:25:39.860Z,18.06
2018-07-07T01:28:08.475Z,17.91
2018-07-07T01:30:37.027Z,17.86
2018-07-07T01:33:05.652Z,17.90
2018-07-07T01:35:34.219Z,17.91
2018-07-07T01:38:02.818Z,17.95
2018-07-07T01:40:31.423Z,17.90
2018-07-07T01:43:00.007Z,17.83
2018-07-07T01:45:28.662Z,17.74
2018-07-07T01:47:57.265Z,17.62
2018-07-07T01:50:25.835Z,17.55
2018-07-07T01:52:54.430Z,17.50
2018-07-07T01:55:23.095Z,17.47
2018-07-07T01:57:51.690Z,17.50
2018-07-07T02:00:20.331Z,17.48
2018-07-07T02:02:48.943Z,17.44
2018-07-07T02:05:17.641Z,17.48
2018-07-07T02:07:46.283Z,17.57
2018-07-07T02:10:15.019Z,17.55
2018-07-07T02:12:43.662Z,17.58
2018-07-07T02:15:12.360Z,17.57
2018-07-07T02:17:40.837Z,17.60
2018-07-07T02:20:09.593Z,17.50
2018-07-07T02:22:38.310Z,17.40
2018-07-07T02:25:07.013Z,17.37
2018-07-07T02:27:35.676Z,17.36
2018-07-07T02:30:04.783Z,17.58
2018-07-07T02:32:33.543Z,17.66
2018-07-07T02:35:02.121Z,17.58
2018-07-07T02:37:30.813Z,17.50
2018-07-07T02:39:59.410Z,17.46
2018-07-07T02:42:28.007Z,17.46
2018-07-07T02:44:56.571Z,17.45
2018-07-07T02:47:25.153Z,17.43
2018-07-07T02:49:53.706Z,17.74
2018-07-07T02:52:22.317Z,17.84
2018-07-07T02:54:50.911Z,17.82
2018-07-07T02:57:19.471Z,17.82
2018-07-07T02:59:48.110Z,17.84
2018-07-07T03:02:16.724Z,18.03
2018-07-07T03:04:45.356Z,17.92
2018-07-07T03:07:14.004Z,17.96
2018-07-07T03:09:42.666Z,17.86
2018-07-07T03:12:11.306Z,17.76
2018-07-07T03:14:39.898Z,17.70
2018-07-07T03:17:08.467Z,17.65
2018-07-07T03:19:37.063Z,17.61
2018-07-07T03:22:05.679Z,17.58
2018-07-07T03:24:34.254Z,17.60
2018-07-07T03:27:02.866Z,17.62
2018-07-07T03:29:31.453Z,17.57
2018-07-07T03:32:00.045Z,17.57
2018-07-07T03:34:28.671Z,17.56
2018-07-07T03:36:57.263Z,17.51
2018-07-07T03:39:25.886Z,17.57
2018-07-07T03:41:54.493Z,17.56
2018-07-07T03:44:23.085Z,17.83
2018-07-07T03:46:51.681Z,17.88
2018-07-07T03:49:20.300Z,17.97
2018-07-07T03:51:48.936Z,17.77
2018-07-07T03:54:17.497Z,17.64
2018-07-07T03:56:46.079Z,17.53
2018-07-07T03:59:14.793Z,17.53
2018-07-07T04:01:43.586Z,17.56
2018-07-07T04:04:12.251Z,17.56
2018-07-07T04:06:40.861Z,17.55
2018-07-07T04:09:09.510Z,17.55
2018-07-07T04:11:38.146Z,17.50
2018-07-07T04:14:06.836Z,17.55
2018-07-07T04:16:35.471Z,17.57
2018-07-07T04:19:04.123Z,17.45
2018-07-07T04:21:32.725Z,17.36
2018-07-07T04:24:01.339Z,17.25
2018-07-07T04:26:29.951Z,17.14
2018-07-07T04:28:58.581Z,17.11
2018-07-07T04:31:27.159Z,17.17
2018-07-07T04:33:55.784Z,17.19
2018-07-07T04:36:24.376Z,17.28
2018-07-07T04:38:52.951Z,17.41
2018-07-07T04:41:21.506Z,17.63
2018-07-07T04:43:50.103Z,17.87
2018-07-07T04:46:18.725Z,18.23
2018-07-07T04:48:47.431Z,18.51
2018-07-07T04:51:16.184Z,18.90
2018-07-07T04:53:44.889Z,19.33
2018-07-07T04:56:13.581Z,19.76
2018-07-07T04:58:42.261Z,20.25
2018-07-07T05:01:10.978Z,20.54
2018-07-07T05:03:39.728Z,20.62
2018-07-07T05:06:08.345Z,20.83
2018-07-07T05:08:37.007Z,21.28
2018-07-07T05:11:05.653Z,21.55
2018-07-07T05:13:34.298Z,21.66
2018-07-07T05:16:02.914Z,21.69
2018-07-07T05:18:31.626Z,21.96
2018-07-07T05:21:00.270Z,22.25
2018-07-07T05:23:28.934Z,22.51
2018-07-07T05:25:57.598Z,22.61
2018-07-07T05:28:26.269Z,22.77
2018-07-07T05:30:54.900Z,23.02
2018-07-07T05:33:23.501Z,23.08
2018-07-07T05:35:52.159Z,23.14
2018-07-07T05:38:20.829Z,23.27
2018-07-07T05:40:49.579Z,23.72
2018-07-07T05:43:18.203Z,23.78
2018-07-07T05:45:46.839Z,23.72
2018-07-07T05:48:15.439Z,23.68
2018-07-07T05:50:43.996Z,23.91
2018-07-07T05:53:12.634Z,24.02
2018-07-07T05:55:46.886Z,24.56
2018-07-07T05:58:15.493Z,24.58
2018-07-07T06:00:44.091Z,25.04
2018-07-07T06:03:12.731Z,25.67
2018-07-07T06:05:41.338Z,26.12
2018-07-07T06:08:09.998Z,26.08
2018-07-07T06:10:38.686Z,26.31
2018-07-07T06:13:07.379Z,26.40
2018-07-07T06:15:35.883Z,26.57
2018-07-07T06:18:04.709Z,26.58
2018-07-07T06:20:33.648Z,26.57
2018-07-07T06:23:02.360Z,26.57
2018-07-07T06:25:30.993Z,26.89
2018-07-07T06:27:59.981Z,27.32
2018-07-07T06:30:28.900Z,27.51
2018-07-07T06:32:57.607Z,27.33
2018-07-07T06:35:26.700Z,27.42
2018-07-07T06:37:56.877Z,27.69
2018-07-07T06:40:25.548Z,27.76
2018-07-07T06:42:54.384Z,28.06
2018-07-07T06:45:23.519Z,27.91
2018-07-07T06:47:52.281Z,28.22
2018-07-07T06:50:20.907Z,28.17
2018-07-07T06:52:49.594Z,28.11
2018-07-07T06:55:18.243Z,28.48
2018-07-07T06:57:46.944Z,28.33
2018-07-07T07:00:15.749Z,28.34
2018-07-07T07:02:44.679Z,28.53
2018-07-07T07:05:13.291Z,28.58
2018-07-07T07:07:42.019Z,29.01
2018-07-07T07:10:10.747Z,28.84
2018-07-07T07:12:39.496Z,28.84
2018-07-07T07:15:08.302Z,28.93
2018-07-07T07:17:36.951Z,29.06
2018-07-07T07:20:05.724Z,29.39
2018-07-07T07:22:35.226Z,29.37
2018-07-07T07:25:03.956Z,29.31
2018-07-07T07:27:32.674Z,29.26
2018-07-07T07:30:01.286Z,29.47
2018-07-07T07:32:30.359Z,29.43
2018-07-07T07:34:59.069Z,29.73
2018-07-07T07:37:27.681Z,29.96
2018-07-07T07:39:56.748Z,30.66
2018-07-07T07:42:25.336Z,30.80
2018-07-07T07:44:54.597Z,30.54
2018-07-07T07:47:23.271Z,30.44
2018-07-07T07:49:51.876Z,31.21
2018-07-07T07:52:20.464Z,31.08
2018-07-07T07:54:49.139Z,31.12
2018-07-07T07:57:17.798Z,31.60
2018-07-07T07:59:46.423Z,31.10
2018-07-07T08:02:15.118Z,31.42
2018-07-07T08:04:43.853Z,31.82
2018-07-07T08:07:12.539Z,31.52
2018-07-07T08:09:41.149Z,31.32
2018-07-07T08:12:09.768Z,31.53
2018-07-07T08:14:38.469Z,31.58
2018-07-07T08:17:07.261Z,31.76
2018-07-07T08:19:35.988Z,31.82
2018-07-07T08:22:04.728Z,31.91
2018-07-07T08:24:33.418Z,32.14
2018-07-07T08:27:02.068Z,32.21
2018-07-07T08:29:30.751Z,32.71
2018-07-07T08:31:59.426Z,32.17
2018-07-07T08:34:28.072Z,31.98
2018-07-07T08:36:57.449Z,32.21
2018-07-07T08:39:26.123Z,32.44
2018-07-07T08:41:54.793Z,32.22
2018-07-07T08:44:23.459Z,31.87
2018-07-07T08:46:52.192Z,31.94
2018-07-07T08:49:20.905Z,32.13
2018-07-07T08:51:49.636Z,32.10
2018-07-07T08:54:18.312Z,32.17
2018-07-07T08:56:47.397Z,32.42
2018-07-07T08:59:16.060Z,32.45
2018-07-07T09:01:44.566Z,32.22
2018-07-07T09:04:13.226Z,32.47
2018-07-07T09:06:42.072Z,32.46
2018-07-07T09:09:10.778Z,32.91
2018-07-07T09:11:40.203Z,33.10
2018-07-07T09:14:08.850Z,33.17
2018-07-07T09:16:37.558Z,33.31
2018-07-07T09:19:06.218Z,33.44
2018-07-07T09:21:34.875Z,33.00
2018-07-07T09:24:03.603Z,32.94
2018-07-07T09:26:32.246Z,33.04
2018-07-07T09:29:00.853Z,33.28
2018-07-07T09:31:29.438Z,32.98
2018-07-07T09:33:58.083Z,33.81
2018-07-07T09:36:26.939Z,33.89
2018-07-07T09:38:55.627Z,33.99
2018-07-07T09:41:24.370Z,33.81
2018-07-07T09:43:53.058Z,34.09
2018-07-07T09:46:21.714Z,34.36
2018-07-07T09:48:50.359Z,34.05
2018-07-07T09:51:18.991Z,34.51
2018-07-07T09:53:47.641Z,34.91
2018-07-07T09:56:16.325Z,34.83
2018-07-07T09:58:44.995Z,34.66
2018-07-07T10:01:13.717Z,34.95
2018-07-07T10:03:42.368Z,35.05
2018-07-07T10:06:11.052Z,34.78
2018-07-07T10:08:39.771Z,34.87
2018-07-07T10:11:08.413Z,35.10
2018-07-07T10:13:37.073Z,35.65
2018-07-07T10:16:05.693Z,35.66
2018-07-07T10:18:34.424Z,35.70
2018-07-07T10:21:03.207Z,35.61
2018-07-07T10:23:31.885Z,35.59
2018-07-07T10:26:00.536Z,35.97
2018-07-07T10:28:29.381Z,36.00
2018-07-07T10:30:57.997Z,36.07
2018-07-07T10:33:26.702Z,36.37
2018-07-07T10:35:55.347Z,36.60
2018-07-07T10:38:23.989Z,36.45
2018-07-07T10:40:52.616Z,36.72
2018-07-07T10:43:21.250Z,36.19
2018-07-07T10:45:50.094Z,36.44
2018-07-07T10:48:18.525Z,36.29
2018-07-07T10:50:47.136Z,36.69
2018-07-07T10:53:15.763Z,36.80
2018-07-07T10:55:45.363Z,36.77
2018-07-07T10:58:14.061Z,36.53
2018-07-07T11:00:42.721Z,36.86
2018-07-07T11:03:11.400Z,36.78
2018-07-07T11:05:39.987Z,36.31
2018-07-07T11:08:10.846Z,36.33
2018-07-07T11:10:39.531Z,35.91
2018-07-07T11:13:08.184Z,35.61
2018-07-07T11:15:36.872Z,36.06
2018-07-07T11:18:05.631Z,35.34
2018-07-07T11:20:39.844Z,34.95
2018-07-07T11:23:08.522Z,35.31
2018-07-07T11:25:37.282Z,35.46
2018-07-07T11:28:05.972Z,36.02
2018-07-07T11:30:34.620Z,36.10
2018-07-07T11:33:05.094Z,36.27
2018-07-07T11:35:33.789Z,36.54
2018-07-07T11:38:03.476Z,36.54
2018-07-07T11:40:32.452Z,35.53
2018-07-07T11:43:01.774Z,35.32
2018-07-07T11:45:30.667Z,36.02
2018-07-07T11:47:59.561Z,36.27
2018-07-07T11:50:28.443Z,35.80
2018-07-07T11:52:57.167Z,36.46
2018-07-07T11:55:25.938Z,37.15
2018-07-07T11:57:54.550Z,37.66
2018-07-07T12:00:23.343Z,37.77
2018-07-07T12:02:52.132Z,37.56
2018-07-07T12:05:20.779Z,38.37
2018-07-07T12:08:00.712Z,38.21
2018-07-07T12:10:18.089Z,37.94
2018-07-07T12:12:46.791Z,38.00
2018-07-07T12:15:15.786Z,37.26
2018-07-07T12:17:44.535Z,37.97
2018-07-07T12:20:13.334Z,38.05
2018-07-07T12:22:42.101Z,38.02
2018-07-07T12:25:10.719Z,37.70
2018-07-07T12:27:39.399Z,38.13
2018-07-07T12:30:08.139Z,37.29
2018-07-07T12:32:36.877Z,37.38
2018-07-07T12:35:05.883Z,37.81
2018-07-07T12:37:34.593Z,37.76
2018-07-07T12:40:04.431Z,37.77
2018-07-07T12:42:33.199Z,37.29
2018-07-07T12:45:02.022Z,37.65
2018-07-07T12:47:30.676Z,37.65
2018-07-07T12:49:59.386Z,38.20
2018-07-07T12:52:28.084Z,38.40
2018-07-07T12:54:56.739Z,38.71
2018-07-07T12:57:25.471Z,38.78
2018-07-07T12:59:54.159Z,38.50
2018-07-07T13:02:22.836Z,38.01
2018-07-07T13:04:52.403Z,36.84
2018-07-07T13:07:21.144Z,35.72
2018-07-07T13:09:56.369Z,34.93
2018-07-07T13:12:25.072Z,35.15
2018-07-07T13:14:53.880Z,35.52
2018-07-07T13:17:29.059Z,36.06
2018-07-07T13:19:58.343Z,36.97
2018-07-07T13:22:32.628Z,36.85
2018-07-07T13:25:01.411Z,36.06
2018-07-07T13:27:32.421Z,35.80
2018-07-07T13:30:01.181Z,35.85
2018-07-07T13:32:30.846Z,36.00
2018-07-07T13:34:59.562Z,36.25
2018-07-07T13:37:28.301Z,36.25
2018-07-07T13:39:57.098Z,36.57
2018-07-07T13:42:25.784Z,36.54
2018-07-07T13:45:00.229Z,36.47
2018-07-07T13:47:29.597Z,35.92
2018-07-07T13:49:59.629Z,35.46
2018-07-07T13:52:28.316Z,35.27
2018-07-07T13:54:57.169Z,34.93
2018-07-07T13:57:25.899Z,34.31
2018-07-07T13:59:54.619Z,33.90
2018-07-07T14:02:23.322Z,33.60
2018-07-07T14:04:52.049Z,33.71
2018-07-07T14:07:20.804Z,33.81
2018-07-07T14:09:49.497Z,33.70
2018-07-07T14:12:18.239Z,33.68
2018-07-07T14:14:47.906Z,33.49
2018-07-07T14:17:16.730Z,32.79
2018-07-07T14:19:45.359Z,32.36
2018-07-07T14:22:18.831Z,32.19
2018-07-07T14:24:47.567Z,31.75
2018-07-07T14:27:16.889Z,31.54
2018-07-07T14:29:45.951Z,31.42
2018-07-07T14:32:14.626Z,31.23
2018-07-07T14:34:43.362Z,31.22
2018-07-07T14:37:12.424Z,31.17
2018-07-07T14:39:59.827Z,31.15
2018-07-07T14:43:00.077Z,31.22
2018-07-07T14:45:29.998Z,31.07
2018-07-07T14:48:01.738Z,30.87
2018-07-07T14:50:30.562Z,30.77
2018-07-07T14:52:59.262Z,30.76
2018-07-07T14:55:29.299Z,30.81
2018-07-07T14:57:57.862Z,30.90
2018-07-07T15:00:27.506Z,30.95
2018-07-07T15:02:57.229Z,30.92
2018-07-07T15:05:25.936Z,30.96
2018-07-07T15:07:54.572Z,30.77
2018-07-07T15:10:23.271Z,30.63
2018-07-07T15:12:52.068Z,30.51
2018-07-07T15:15:20.774Z,30.32
2018-07-07T15:17:49.581Z,30.31
2018-07-07T15:20:18.354Z,30.28
2018-07-07T15:22:47.131Z,30.26
2018-07-07T15:25:15.801Z,30.14
2018-07-07T15:27:44.497Z,30.02
2018-07-07T15:30:13.371Z,29.99
2018-07-07T15:32:42.066Z,29.93
2018-07-07T15:35:10.821Z,29.88
2018-07-07T15:37:39.456Z,29.75
2018-07-07T15:40:08.294Z,29.68
2018-07-07T15:42:36.981Z,29.73
2018-07-07T15:45:05.738Z,29.48
2018-07-07T15:47:34.398Z,29.12
2018-07-07T15:50:03.637Z,28.94
2018-07-07T15:52:37.899Z,28.97
2018-07-07T15:55:07.487Z,28.86
2018-07-07T15:57:36.284Z,28.71
2018-07-07T16:00:07.443Z,28.48
2018-07-07T16:02:36.079Z,28.11
2018-07-07T16:05:05.004Z,27.70
2018-07-07T16:07:33.697Z,27.16
2018-07-07T16:10:02.859Z,26.99
2018-07-07T16:12:31.577Z,26.73
2018-07-07T16:15:00.244Z,26.40
2018-07-07T16:17:28.947Z,26.38
2018-07-07T16:19:57.709Z,26.16
2018-07-07T16:22:26.386Z,26.10
2018-07-07T16:24:55.099Z,26.08
2018-07-07T16:27:23.716Z,25.92
2018-07-07T16:29:52.381Z,24.97
2018-07-07T16:32:26.681Z,24.46
2018-07-07T16:34:55.812Z,24.00
2018-07-07T16:37:24.591Z,23.36
2018-07-07T16:39:53.278Z,23.45
2018-07-07T16:42:22.787Z,23.40
2018-07-07T16:44:52.104Z,23.28
2018-07-07T16:47:20.846Z,23.29
2018-07-07T16:49:50.626Z,23.28
2018-07-07T16:52:19.398Z,22.95
2018-07-07T16:54:48.665Z,22.60
2018-07-07T16:57:17.425Z,22.44
2018-07-07T16:59:46.197Z,22.67
2018-07-07T17:02:14.946Z,22.79
2018-07-07T17:04:43.724Z,23.08
2018-07-07T17:07:12.527Z,23.27
2018-07-07T17:09:41.760Z,23.39
2018-07-07T17:12:10.621Z,23.78
2018-07-07T17:14:39.345Z,23.75
2018-07-07T17:17:09.746Z,23.60
2018-07-07T17:19:38.632Z,23.38
2018-07-07T17:22:07.729Z,23.40
2018-07-07T17:24:36.575Z,23.32
2018-07-07T17:27:05.251Z,23.10
2018-07-07T17:29:33.991Z,22.89
2018-07-07T17:32:03.072Z,22.84
2018-07-07T17:34:31.819Z,22.84
2018-07-07T17:37:00.638Z,22.83
2018-07-07T17:39:29.619Z,23.11
2018-07-07T17:41:58.339Z,23.11
2018-07-07T17:44:27.043Z,23.00
2018-07-07T17:46:55.940Z,22.88
2018-07-07T17:49:24.848Z,22.80
2018-07-07T17:51:53.686Z,22.79
2018-07-07T17:54:22.406Z,22.70
2018-07-07T17:56:51.259Z,22.65
2018-07-07T17:59:21.563Z,22.88
2018-07-07T18:01:50.446Z,22.87
2018-07-07T18:04:19.218Z,22.80
2018-07-07T18:06:47.913Z,22.80
2018-07-07T18:09:16.631Z,22.73
2018-07-07T18:11:45.367Z,22.68
2018-07-07T18:14:13.806Z,22.82
2018-07-07T18:16:45.839Z,22.98
2018-07-07T18:19:14.569Z,22.90
2018-07-07T18:21:43.724Z,22.75
2018-07-07T18:24:12.452Z,22.65
2018-07-07T18:26:41.152Z,22.42
2018-07-07T18:29:09.824Z,22.41
2018-07-07T18:31:38.464Z,22.34
2018-07-07T18:34:07.129Z,22.34
2018-07-07T18:36:35.791Z,22.42
2018-07-07T18:39:04.859Z,22.19
2018-07-07T18:41:33.471Z,22.06
2018-07-07T18:44:01.879Z,22.03
2018-07-07T18:46:30.479Z,22.04
2018-07-07T18:48:59.225Z,22.03
2018-07-07T18:51:27.821Z,22.09
2018-07-07T18:53:56.471Z,22.16
2018-07-07T18:56:24.943Z,22.22
2018-07-07T18:58:53.621Z,22.19
2018-07-07T19:01:22.271Z,22.04
2018-07-07T19:03:50.911Z,21.90
2018-07-07T19:06:19.558Z,21.85
2018-07-07T19:08:48.284Z,21.81
2018-07-07T19:11:16.731Z,21.62
2018-07-07T19:13:46.294Z,21.44
2018-07-07T19:16:14.936Z,21.41
2018-07-07T19:18:43.563Z,21.38
2018-07-07T19:21:17.729Z,21.27
2018-07-07T19:23:52.033Z,21.21
2018-07-07T19:26:28.042Z,21.15
2018-07-07T19:28:56.846Z,21.14
2018-07-07T19:31:25.456Z,21.15
2018-07-07T19:34:59.428Z,21.11
2018-07-07T19:37:28.245Z,21.03
2018-07-07T19:39:56.918Z,20.95
2018-07-07T19:42:27.418Z,20.94
2018-07-07T19:44:56.086Z,20.94
2018-07-07T19:47:24.755Z,20.90
2018-07-07T19:49:53.436Z,20.98
2018-07-07T19:52:22.118Z,21.04
2018-07-07T19:54:50.699Z,20.96
2018-07-07T19:57:19.359Z,20.90
2018-07-07T19:59:47.952Z,20.81
2018-07-07T20:02:16.576Z,20.75
2018-07-07T20:04:45.218Z,21.05
2018-07-07T20:07:14.618Z,20.70
2018-07-07T20:09:43.353Z,20.80
2018-07-07T20:12:12.021Z,20.64
2018-07-07T20:14:40.635Z,20.53
2018-07-07T20:17:12.527Z,20.46
2018-07-07T20:21:58.222Z,20.44
2018-07-07T20:27:17.418Z,20.79
2018-07-07T20:29:46.089Z,20.76
2018-07-07T20:32:20.883Z,20.78
2018-07-07T20:34:49.343Z,20.78
2018-07-07T20:37:18.116Z,20.57
2018-07-07T20:39:46.815Z,20.54
2018-07-07T20:42:15.521Z,20.71
2018-07-07T20:44:44.008Z,20.81
2018-07-07T20:47:12.665Z,20.52
2018-07-07T20:49:41.832Z,20.22
2018-07-07T20:52:10.560Z,20.07
2018-07-07T20:54:44.205Z,19.96
2018-07-07T20:57:12.915Z,19.97
2018-07-07T20:59:41.601Z,19.99
2018-07-07T21:02:10.292Z,19.96
2018-07-07T21:04:38.839Z,19.94
2018-07-07T21:07:07.924Z,19.85
2018-07-07T21:09:36.595Z,19.83
2018-07-07T21:12:05.398Z,19.73
2018-07-07T21:14:34.117Z,19.83
2018-07-07T21:17:02.781Z,19.79
2018-07-07T21:19:31.468Z,19.71
2018-07-07T21:22:00.082Z,19.67
2018-07-07T21:24:28.725Z,19.69
2018-07-07T21:26:57.371Z,19.68
2018-07-07T21:29:26.113Z,19.64
2018-07-07T21:31:54.706Z,19.64
2018-07-07T21:34:23.398Z,19.58
2018-07-07T21:36:52.050Z,19.57
2018-07-07T21:39:20.711Z,19.55
2018-07-07T21:41:49.344Z,19.48
2018-07-07T21:44:18.105Z,19.41
2018-07-07T21:46:46.866Z,19.35
2018-07-07T21:49:15.691Z,19.35
2018-07-07T21:51:44.383Z,19.34
2018-07-07T21:54:12.984Z,19.30
2018-07-07T21:56:41.562Z,19.27
2018-07-07T21:59:15.811Z,19.24
2018-07-07T22:01:57.502Z,19.20
2018-07-07T22:04:33.987Z,19.13
2018-07-07T22:07:12.611Z,19.14
2018-07-07T22:09:42.114Z,19.17
2018-07-07T22:12:10.798Z,19.15
2018-07-07T22:14:39.279Z,19.17
2018-07-07T22:17:13.446Z,19.18
2018-07-07T22:19:42.085Z,19.21
2018-07-07T22:22:11.345Z,19.15
2018-07-07T22:24:41.143Z,19.08
2018-07-07T22:27:11.186Z,19.05
2018-07-07T22:29:39.838Z,19.00
2018-07-07T22:32:13.980Z,19.00
2018-07-07T22:34:43.691Z,18.94
2018-07-07T22:37:12.493Z,18.97
2018-07-07T22:39:42.223Z,18.90
2018-07-07T22:42:12.262Z,18.82
2018-07-07T22:44:42.051Z,18.74
2018-07-07T22:47:10.735Z,18.72
2018-07-07T22:49:39.227Z,18.66
2018-07-07T22:52:08.880Z,18.55
2018-07-07T22:54:37.588Z,18.46
2018-07-07T22:57:06.376Z,18.39
2018-07-07T22:59:35.004Z,18.47
2018-07-07T23:02:03.755Z,18.67
2018-07-07T23:04:32.348Z,18.74
2018-07-07T23:07:00.948Z,18.63
2018-07-07T23:09:29.734Z,18.73
2018-07-07T23:11:58.361Z,19.09
2018-07-07T23:14:27.026Z,18.97
2018-07-07T23:17:00.598Z,18.92
2018-07-07T23:19:29.344Z,19.06
2018-07-07T23:21:58.196Z,18.92
2018-07-07T23:24:26.864Z,18.76
2018-07-07T23:26:55.633Z,18.65
2018-07-07T23:29:24.228Z,18.62
2018-07-07T23:31:52.935Z,18.54
2018-07-07T23:34:21.674Z,18.43
2018-07-07T23:36:50.298Z,18.35
2018-07-07T23:39:19.033Z,18.27
2018-07-07T23:41:47.758Z,18.30
2018-07-07T23:44:16.419Z,18.20
2018-07-07T23:46:44.838Z,18.06
2018-07-07T23:49:13.511Z,17.95
2018-07-07T23:51:42.198Z,17.92
2018-07-07T23:54:10.825Z,17.86
2018-07-07T23:56:40.109Z,17.78
2018-07-07T23:59:08.768Z,17.75
